createdAt,value
2017-11-18T00:01:27.270Z,5.00
2017-11-18T00:04:03.332Z,5.00
2017-11-18T00:06:36.023Z,5.00
2017-11-18T00:09:15.533Z,4.90
2017-11-18T00:11:52.584Z,4.90
2017-11-18T00:14:25.334Z,5.00
2017-11-18T00:17:00.130Z,5.10
2017-11-18T00:19:29.653Z,5.20
2017-11-18T00:21:59.635Z,5.10
2017-11-18T00:24:28.751Z,5.10
2017-11-18T00:26:57.942Z,5.10
2017-11-18T00:29:27.645Z,5.20
2017-11-18T00:31:56.926Z,5.30
2017-11-18T00:34:26.062Z,5.30
2017-11-18T00:36:57.056Z,5.30
2017-11-18T00:39:29.248Z,5.30
2017-11-18T00:42:00.837Z,5.40
2017-11-18T00:44:43.745Z,5.40
2017-11-18T00:47:20.508Z,5.30
2017-11-18T00:49:55.203Z,5.30
2017-11-18T00:52:29.238Z,5.30
2017-11-18T00:55:10.099Z,5.30
2017-11-18T00:57:44.490Z,5.20
2017-11-18T01:00:16.707Z,5.20
2017-11-18T01:02:57.361Z,5.20
2017-11-18T01:05:31.437Z,5.20
2017-11-18T01:08:01.827Z,5.20
2017-11-18T01:10:38.866Z,5.30
2017-11-18T01:13:15.350Z,5.30
2017-11-18T01:15:51.854Z,5.50
2017-11-18T01:18:30.032Z,5.50
2017-11-18T01:20:59.846Z,5.50
2017-11-18T01:23:28.980Z,5.50
2017-11-18T01:26:06.218Z,5.50
2017-11-18T01:28:35.955Z,5.30
2017-11-18T01:31:09.169Z,5.30
2017-11-18T01:33:43.177Z,5.30
2017-11-18T01:36:14.124Z,5.30
2017-11-18T01:38:43.808Z,5.30
2017-11-18T01:41:16.540Z,5.30
2017-11-18T01:43:49.957Z,5.20
2017-11-18T01:46:26.058Z,5.20
2017-11-18T01:49:05.535Z,5.10
2017-11-18T01:51:35.143Z,4.90
2017-11-18T01:54:06.004Z,4.80
2017-11-18T01:56:35.466Z,4.90
2017-11-18T01:59:04.803Z,4.90
2017-11-18T02:01:34.569Z,4.90
2017-11-18T02:04:04.577Z,4.90
2017-11-18T02:06:35.505Z,4.90
2017-11-18T02:09:05.551Z,4.90
2017-11-18T02:11:37.504Z,4.70
2017-11-18T02:14:08.630Z,4.70
2017-11-18T02:16:38.779Z,4.60
2017-11-18T02:19:08.156Z,4.60
2017-11-18T02:21:37.968Z,4.60
2017-11-18T02:24:08.752Z,4.60
2017-11-18T02:26:40.293Z,4.60
2017-11-18T02:29:11.066Z,4.60
2017-11-18T02:32:43.275Z,4.60
2017-11-18T02:35:13.591Z,4.50
2017-11-18T02:37:44.166Z,4.50
2017-11-18T02:40:14.880Z,4.50
2017-11-18T02:42:44.784Z,4.50
2017-11-18T02:45:28.521Z,4.40
2017-11-18T02:48:07.778Z,4.40
2017-11-18T02:50:39.932Z,4.20
2017-11-18T02:53:10.531Z,4.30
2017-11-18T02:55:48.046Z,4.20
2017-11-18T02:58:23.844Z,4.20
2017-11-18T03:00:53.160Z,4.20
2017-11-18T03:03:22.774Z,4.20
2017-11-18T03:05:52.081Z,4.30
2017-11-18T03:08:21.347Z,4.30
2017-11-18T03:10:50.752Z,4.30
2017-11-18T03:13:20.170Z,4.30
2017-11-18T03:15:49.633Z,4.30
2017-11-18T03:18:18.827Z,4.40
2017-11-18T03:20:48.201Z,4.10
2017-11-18T03:23:17.540Z,4.10
2017-11-18T03:25:46.915Z,4.10
2017-11-18T03:28:16.996Z,4.10
2017-11-18T03:30:46.850Z,4.10
2017-11-18T03:33:16.695Z,4.10
2017-11-18T03:35:46.309Z,4.00
2017-11-18T03:38:15.537Z,4.00
2017-11-18T03:40:44.774Z,4.00
2017-11-18T03:43:14.649Z,4.10
2017-11-18T03:45:43.727Z,4.10
2017-11-18T03:48:13.283Z,4.20
2017-11-18T03:50:43.194Z,4.30
2017-11-18T03:53:13.701Z,4.20
2017-11-18T03:58:16.206Z,4.20
2017-11-18T04:00:50.345Z,4.00
2017-11-18T04:03:19.932Z,4.00
2017-11-18T04:05:49.850Z,4.00
2017-11-18T04:08:20.555Z,4.00
2017-11-18T04:10:50.061Z,4.00
2017-11-18T04:13:20.002Z,4.00
2017-11-18T04:15:50.273Z,4.10
2017-11-18T04:18:19.529Z,4.10
2017-11-18T04:20:49.665Z,4.10
2017-11-18T04:23:19.017Z,4.20
2017-11-18T04:25:48.519Z,4.20
2017-11-18T04:28:17.821Z,4.20
2017-11-18T04:30:48.184Z,4.20
2017-11-18T04:33:20.813Z,4.20
2017-11-18T04:35:50.293Z,4.20
2017-11-18T04:38:19.456Z,4.10
2017-11-18T04:40:49.774Z,4.10
2017-11-18T04:43:19.201Z,4.10
2017-11-18T04:45:49.218Z,4.00
2017-11-18T04:48:19.456Z,3.90
2017-11-18T04:50:49.230Z,3.90
2017-11-18T04:53:19.404Z,3.80
2017-11-18T04:55:48.814Z,3.80
2017-11-18T04:58:18.068Z,3.80
2017-11-18T05:00:48.095Z,3.70
2017-11-18T05:03:17.259Z,3.70
2017-11-18T05:05:46.456Z,3.70
2017-11-18T05:08:15.808Z,3.70
2017-11-18T05:10:45.482Z,3.70
2017-11-18T05:13:15.744Z,3.70
2017-11-18T05:15:45.360Z,3.70
2017-11-18T05:18:15.489Z,3.60
2017-11-18T05:20:44.924Z,3.70
2017-11-18T05:23:17.703Z,3.70
2017-11-18T05:25:48.013Z,3.80
2017-11-18T05:28:17.678Z,3.80
2017-11-18T05:30:48.095Z,3.80
2017-11-18T05:33:18.804Z,3.80
2017-11-18T05:35:49.837Z,3.80
2017-11-18T05:38:20.556Z,3.80
2017-11-18T05:40:50.112Z,3.90
2017-11-18T05:43:20.166Z,3.90
2017-11-18T05:45:49.905Z,3.90
2017-11-18T05:48:21.109Z,3.90
2017-11-18T05:50:55.899Z,3.90
2017-11-18T05:53:25.494Z,3.90
2017-11-18T05:55:55.863Z,4.00
2017-11-18T05:58:31.082Z,4.00
2017-11-18T06:01:00.354Z,4.10
2017-11-18T06:03:29.901Z,4.10
2017-11-18T06:06:00.696Z,4.20
2017-11-18T06:08:34.469Z,4.20
2017-11-18T06:11:04.291Z,4.10
2017-11-18T06:13:33.857Z,4.20
2017-11-18T06:16:04.410Z,4.20
2017-11-18T06:18:43.699Z,4.10
2017-11-18T06:21:16.776Z,4.30
2017-11-18T06:23:46.248Z,4.30
2017-11-18T06:26:16.496Z,4.30
2017-11-18T06:28:45.825Z,4.40
2017-11-18T06:31:15.534Z,4.30
2017-11-18T06:33:44.854Z,4.40
2017-11-18T06:36:13.833Z,4.40
2017-11-18T06:38:42.798Z,4.40
2017-11-18T06:41:12.757Z,4.40
2017-11-18T06:43:42.030Z,4.40
2017-11-18T06:46:12.967Z,4.40
2017-11-18T06:48:42.847Z,4.50
2017-11-18T06:51:11.951Z,4.50
2017-11-18T06:53:41.177Z,4.60
2017-11-18T06:56:11.262Z,4.60
2017-11-18T06:58:40.382Z,4.60
2017-11-18T07:01:10.062Z,4.60
2017-11-18T07:03:39.601Z,4.60
2017-11-18T07:06:09.911Z,4.70
2017-11-18T07:08:43.225Z,4.70
2017-11-18T07:11:13.464Z,4.70
2017-11-18T07:13:43.333Z,4.80
2017-11-18T07:16:13.103Z,4.70
2017-11-18T07:18:42.213Z,4.80
2017-11-18T07:21:11.379Z,4.80
2017-11-18T07:23:40.554Z,4.90
2017-11-18T07:26:10.435Z,4.90
2017-11-18T07:28:39.905Z,5.00
2017-11-18T07:31:09.015Z,5.00
2017-11-18T07:33:39.167Z,5.00
2017-11-18T07:36:08.669Z,5.00
2017-11-18T07:38:38.054Z,5.00
2017-11-18T07:41:07.364Z,5.10
2017-11-18T07:43:36.547Z,5.00
2017-11-18T07:46:05.773Z,5.10
2017-11-18T07:48:35.318Z,5.10
2017-11-18T07:51:04.429Z,5.10
2017-11-18T07:53:33.481Z,5.20
2017-11-18T07:56:02.615Z,5.20
2017-11-18T07:58:31.776Z,5.20
2017-11-18T08:01:01.576Z,5.20
2017-11-18T08:03:30.547Z,5.20
2017-11-18T08:05:59.627Z,5.20
2017-11-18T08:08:28.755Z,5.30
2017-11-18T08:10:57.943Z,5.30
2017-11-18T08:13:27.189Z,5.30
2017-11-18T08:15:57.042Z,5.30
2017-11-18T08:18:26.659Z,5.20
2017-11-18T08:20:56.044Z,5.20
2017-11-18T08:23:25.427Z,5.20
2017-11-18T08:25:54.636Z,5.20
2017-11-18T08:28:23.723Z,5.20
2017-11-18T08:30:53.036Z,5.30
2017-11-18T08:33:23.170Z,5.30
2017-11-18T08:35:52.313Z,5.30
2017-11-18T08:38:22.271Z,5.40
2017-11-18T08:40:52.033Z,5.40
2017-11-18T08:43:21.947Z,5.40
2017-11-18T08:45:52.053Z,5.40
2017-11-18T08:48:21.227Z,5.40
2017-11-18T08:50:50.576Z,5.50
2017-11-18T08:53:20.115Z,5.50
2017-11-18T08:55:49.495Z,5.50
2017-11-18T08:58:18.865Z,5.60
2017-11-18T09:00:48.529Z,5.70
2017-11-18T09:03:19.360Z,5.80
2017-11-18T09:05:48.484Z,5.80
2017-11-18T09:08:17.761Z,5.80
2017-11-18T09:10:47.689Z,6.00
2017-11-18T09:13:17.549Z,5.90
2017-11-18T09:15:47.500Z,5.90
2017-11-18T09:18:16.518Z,5.80
2017-11-18T09:20:45.990Z,5.90
2017-11-18T09:23:17.397Z,6.00
2017-11-18T09:25:46.607Z,5.90
2017-11-18T09:28:16.448Z,6.00
2017-11-18T09:30:45.762Z,6.00
2017-11-18T09:33:15.437Z,6.00
2017-11-18T09:35:44.727Z,6.10
2017-11-18T09:38:13.960Z,6.20
2017-11-18T09:40:42.982Z,6.20
2017-11-18T09:43:12.474Z,6.20
2017-11-18T09:45:41.774Z,6.30
2017-11-18T09:48:10.844Z,6.30
2017-11-18T09:50:40.510Z,6.40
2017-11-18T09:53:40.262Z,6.30
2017-11-18T09:56:09.456Z,6.30
2017-11-18T09:58:39.073Z,6.40
2017-11-18T10:01:08.133Z,6.40
2017-11-18T10:03:37.379Z,6.40
2017-11-18T10:06:06.883Z,6.40
2017-11-18T10:08:36.124Z,6.50
2017-11-18T10:11:06.672Z,6.50
2017-11-18T10:13:36.007Z,6.50
2017-11-18T10:16:05.509Z,6.50
2017-11-18T10:18:35.868Z,6.60
2017-11-18T10:21:05.364Z,6.60
2017-11-18T10:23:35.393Z,6.70
2017-11-18T10:26:04.637Z,6.70
2017-11-18T10:28:34.908Z,6.60
2017-11-18T10:31:05.005Z,6.70
2017-11-18T10:33:34.196Z,6.80
2017-11-18T10:36:03.269Z,6.80
2017-11-18T10:38:33.030Z,6.80
2017-11-18T10:41:02.449Z,6.80
2017-11-18T10:43:31.882Z,6.80
2017-11-18T10:46:06.590Z,6.70
2017-11-18T10:48:35.866Z,6.60
2017-11-18T10:51:05.420Z,6.50
2017-11-18T10:53:34.697Z,6.70
2017-11-18T10:56:04.094Z,6.80
2017-11-18T10:58:33.226Z,6.80
2017-11-18T11:01:03.475Z,6.70
2017-11-18T11:03:32.554Z,6.70
2017-11-18T11:06:04.114Z,6.70
2017-11-18T11:08:33.431Z,6.70
2017-11-18T11:11:02.678Z,6.80
2017-11-18T11:13:33.525Z,6.80
2017-11-18T11:16:03.631Z,6.90
2017-11-18T11:18:33.360Z,6.90
2017-11-18T11:21:02.806Z,6.80
2017-11-18T11:23:32.127Z,6.90
2017-11-18T11:26:01.362Z,7.00
2017-11-18T11:28:31.523Z,6.90
2017-11-18T11:31:03.416Z,6.90
2017-11-18T11:33:33.648Z,6.90
2017-11-18T11:36:04.523Z,7.00
2017-11-18T11:38:33.755Z,7.00
2017-11-18T11:41:03.086Z,7.00
2017-11-18T11:43:37.796Z,7.10
2017-11-18T11:46:12.576Z,7.10
2017-11-18T11:48:51.875Z,7.10
2017-11-18T11:51:26.973Z,7.10
2017-11-18T11:53:57.006Z,7.40
2017-11-18T11:56:29.890Z,7.50
2017-11-18T11:59:00.256Z,7.50
2017-11-18T12:01:34.209Z,7.30
2017-11-18T12:04:10.734Z,7.40
2017-11-18T12:06:44.887Z,7.40
2017-11-18T12:09:15.955Z,7.40
2017-11-18T12:12:20.797Z,7.40
2017-11-18T12:14:58.407Z,7.40
2017-11-18T12:17:35.517Z,7.40
2017-11-18T12:20:06.458Z,7.40
2017-11-18T12:22:38.215Z,7.50
2017-11-18T12:25:07.799Z,7.50
2017-11-18T12:27:39.461Z,7.50
2017-11-18T12:30:13.515Z,7.40
2017-11-18T12:32:42.821Z,7.40
2017-11-18T12:35:12.132Z,7.50
2017-11-18T12:37:41.793Z,7.60
2017-11-18T12:40:11.170Z,7.60
2017-11-18T12:42:41.470Z,7.60
2017-11-18T12:45:11.034Z,7.60
2017-11-18T12:47:40.446Z,7.50
2017-11-18T12:50:10.377Z,7.70
2017-11-18T12:52:40.956Z,7.90
2017-11-18T12:55:12.114Z,7.80
2017-11-18T12:57:42.984Z,7.80
2017-11-18T13:00:14.277Z,7.80
2017-11-18T13:02:45.568Z,8.00
2017-11-18T13:05:18.520Z,8.00
2017-11-18T13:07:49.198Z,7.90
2017-11-18T13:10:19.550Z,7.90
2017-11-18T13:12:49.067Z,8.00
2017-11-18T13:15:18.576Z,7.80
2017-11-18T13:17:49.816Z,7.70
2017-11-18T13:20:20.608Z,7.60
2017-11-18T13:22:50.477Z,8.00
2017-11-18T13:25:21.882Z,8.30
2017-11-18T13:27:53.825Z,9.00
2017-11-18T13:30:25.616Z,10.00
2017-11-18T13:32:54.876Z,10.40
2017-11-18T13:35:26.915Z,9.60
2017-11-18T13:37:58.190Z,7.80
2017-11-18T13:40:29.873Z,7.70
2017-11-18T13:43:04.354Z,7.60
2017-11-18T13:45:41.057Z,7.60
2017-11-18T13:48:18.946Z,7.80
2017-11-18T13:50:49.158Z,7.80
2017-11-18T13:53:24.837Z,7.70
2017-11-18T13:55:57.484Z,7.60
2017-11-18T13:58:26.708Z,7.40
2017-11-18T14:00:57.991Z,7.50
2017-11-18T14:03:30.973Z,8.30
2017-11-18T14:06:04.326Z,9.20
2017-11-18T14:08:37.257Z,9.70
2017-11-18T14:11:06.704Z,9.70
2017-11-18T14:13:41.528Z,10.00
2017-11-18T14:16:13.899Z,8.80
2017-11-18T14:18:43.480Z,8.70
2017-11-18T14:21:12.799Z,8.30
2017-11-18T14:23:42.845Z,8.00
2017-11-18T14:26:14.369Z,7.90
2017-11-18T14:28:48.743Z,7.90
2017-11-18T14:31:20.670Z,7.80
2017-11-18T14:33:51.003Z,7.80
2017-11-18T14:36:20.514Z,7.80
2017-11-18T14:38:51.974Z,7.80
2017-11-18T14:41:23.119Z,7.70
2017-11-18T14:43:52.418Z,7.70
2017-11-18T14:46:22.039Z,7.70
2017-11-18T14:48:55.357Z,7.70
2017-11-18T14:51:25.644Z,7.60
2017-11-18T14:53:54.990Z,7.50
2017-11-18T14:56:25.949Z,7.40
2017-11-18T14:58:56.227Z,7.50
2017-11-18T15:01:27.024Z,7.40
2017-11-18T15:03:56.932Z,7.50
2017-11-18T15:06:27.667Z,7.50
2017-11-18T15:08:57.444Z,7.50
2017-11-18T15:11:27.728Z,7.60
2017-11-18T15:14:00.091Z,7.60
2017-11-18T15:16:35.711Z,7.60
2017-11-18T15:19:10.584Z,7.70
2017-11-18T15:21:54.740Z,7.80
2017-11-18T15:24:31.506Z,7.80
2017-11-18T15:27:07.012Z,7.90
2017-11-18T15:29:36.415Z,7.80
2017-11-18T15:32:11.994Z,7.70
2017-11-18T15:34:45.771Z,7.70
2017-11-18T15:37:16.555Z,7.70
2017-11-18T15:39:46.744Z,7.70
2017-11-18T15:42:16.789Z,7.70
2017-11-18T15:44:48.745Z,7.60
2017-11-18T15:47:20.780Z,7.40
2017-11-18T15:49:55.428Z,7.40
2017-11-18T15:52:26.036Z,7.40
2017-11-18T15:54:57.177Z,7.30
2017-11-18T15:57:28.805Z,7.30
2017-11-18T16:00:05.172Z,7.30
2017-11-18T16:02:42.745Z,7.50
2017-11-18T16:05:14.588Z,7.50
2017-11-18T16:07:48.744Z,7.50
2017-11-18T16:10:21.113Z,7.50
2017-11-18T16:12:50.644Z,7.50
2017-11-18T16:15:25.665Z,7.70
2017-11-18T16:17:59.505Z,7.70
2017-11-18T16:20:33.807Z,7.70
2017-11-18T16:23:04.205Z,7.70
2017-11-18T16:25:38.020Z,7.80
2017-11-18T16:28:08.031Z,7.80
2017-11-18T16:30:41.968Z,7.80
2017-11-18T16:33:12.574Z,7.80
2017-11-18T16:35:42.156Z,7.80
2017-11-18T16:38:15.057Z,8.10
2017-11-18T16:40:47.346Z,7.80
2017-11-18T16:43:18.635Z,7.70
2017-11-18T16:45:49.758Z,7.70
2017-11-18T16:48:19.158Z,7.90
2017-11-18T16:50:49.001Z,7.90
2017-11-18T16:53:18.747Z,8.00
2017-11-18T16:55:53.592Z,8.10
2017-11-18T16:58:31.184Z,8.00
2017-11-18T17:01:04.122Z,8.10
2017-11-18T17:03:37.163Z,8.00
2017-11-18T17:06:07.275Z,8.00
2017-11-18T17:08:39.239Z,8.10
2017-11-18T17:11:14.800Z,8.10
2017-11-18T17:13:44.102Z,8.00
2017-11-18T17:16:14.090Z,8.00
2017-11-18T17:18:47.901Z,8.00
2017-11-18T17:21:18.655Z,8.10
2017-11-18T17:23:48.265Z,8.00
2017-11-18T17:26:18.995Z,8.10
2017-11-18T17:28:49.242Z,8.00
2017-11-18T17:31:19.759Z,8.00
2017-11-18T17:33:49.853Z,8.00
2017-11-18T17:36:21.318Z,8.00
2017-11-18T17:38:52.905Z,8.00
2017-11-18T17:41:25.150Z,8.00
2017-11-18T17:43:56.000Z,8.00
2017-11-18T17:46:25.641Z,8.10
2017-11-18T17:48:55.050Z,8.20
2017-11-18T17:51:24.946Z,8.10
2017-11-18T17:53:54.521Z,8.20
2017-11-18T17:56:24.140Z,8.20
2017-11-18T17:58:54.464Z,8.30
2017-11-18T18:01:24.088Z,8.30
2017-11-18T18:03:53.813Z,8.30
2017-11-18T18:06:23.251Z,8.20
2017-11-18T18:08:52.624Z,8.20
2017-11-18T18:11:28.087Z,8.30
2017-11-18T18:14:04.933Z,8.20
2017-11-18T18:16:34.535Z,8.10
2017-11-18T18:19:03.889Z,8.10
2017-11-18T18:21:35.593Z,8.10
2017-11-18T18:24:05.094Z,8.10
2017-11-18T18:26:35.004Z,8.10
2017-11-18T18:29:04.849Z,8.20
2017-11-18T18:31:34.778Z,8.20
2017-11-18T18:34:04.699Z,8.20
2017-11-18T18:36:34.520Z,8.30
2017-11-18T18:39:04.625Z,8.30
2017-11-18T18:41:38.898Z,8.20
2017-11-18T18:44:15.589Z,8.30
2017-11-18T18:46:44.939Z,8.30
2017-11-18T18:49:15.250Z,8.30
2017-11-18T18:51:44.418Z,8.30
2017-11-18T18:54:13.485Z,8.40
2017-11-18T18:56:43.937Z,8.50
2017-11-18T18:59:14.617Z,8.60
2017-11-18T19:01:44.111Z,8.70
2017-11-18T19:04:14.152Z,8.80
2017-11-18T19:06:44.170Z,8.80
2017-11-18T19:09:20.257Z,8.70
2017-11-18T19:11:55.048Z,8.60
2017-11-18T19:14:25.675Z,8.50
2017-11-18T19:17:04.009Z,8.50
2017-11-18T19:22:22.481Z,8.40
2017-11-18T19:24:51.763Z,8.60
2017-11-18T19:27:20.950Z,8.60
2017-11-18T19:29:51.947Z,8.70
2017-11-18T19:32:22.315Z,8.60
2017-11-18T19:34:52.505Z,8.70
2017-11-18T19:37:22.143Z,8.70
2017-11-18T19:39:54.680Z,8.70
2017-11-18T19:42:31.867Z,8.70
2017-11-18T19:45:02.956Z,8.70
2017-11-18T19:47:34.731Z,8.60
2017-11-18T19:50:06.621Z,8.60
2017-11-18T19:52:37.445Z,8.70
2017-11-18T19:55:09.392Z,8.70
2017-11-18T19:57:41.844Z,8.70
2017-11-18T20:00:12.221Z,8.60
2017-11-18T20:02:42.506Z,8.60
2017-11-18T20:05:13.486Z,8.70
2017-11-18T20:07:44.490Z,8.70
2017-11-18T20:10:17.744Z,8.60
2017-11-18T20:12:56.528Z,8.60
2017-11-18T20:15:45.464Z,8.60
2017-11-18T20:18:20.117Z,8.30
2017-11-18T20:20:54.233Z,7.20
2017-11-18T20:23:30.137Z,6.70
2017-11-18T20:26:08.341Z,6.70
2017-11-18T20:28:40.823Z,6.60
2017-11-18T20:31:15.999Z,6.60
2017-11-18T20:33:52.837Z,6.50
2017-11-18T20:36:23.972Z,6.50
2017-11-18T20:38:53.998Z,6.50
2017-11-18T20:41:23.792Z,6.40
2017-11-18T20:43:54.042Z,6.60
2017-11-18T20:46:24.611Z,6.60
2017-11-18T20:48:54.926Z,6.60
2017-11-18T20:51:25.048Z,6.60
2017-11-18T20:54:07.839Z,6.60
2017-11-18T20:56:56.101Z,6.60
2017-11-18T20:59:32.038Z,6.60
2017-11-18T21:02:12.071Z,6.60
2017-11-18T21:04:43.015Z,6.60
2017-11-18T21:07:13.785Z,6.60
2017-11-18T21:10:30.006Z,6.60
2017-11-18T21:13:04.067Z,6.70
2017-11-18T21:15:46.974Z,6.60
2017-11-18T21:21:04.199Z,6.70
2017-11-18T21:23:35.695Z,6.80
2017-11-18T21:26:07.618Z,6.70
2017-11-18T21:28:38.722Z,6.70
2017-11-18T21:31:20.188Z,6.70
2017-11-18T21:33:58.260Z,6.70
2017-11-18T21:36:29.010Z,6.70
2017-11-18T21:42:31.975Z,6.60
2017-11-18T21:45:13.923Z,6.60
2017-11-18T21:47:55.462Z,6.60
2017-11-18T21:50:41.164Z,6.70
2017-11-18T21:53:16.151Z,6.80
2017-11-18T21:55:58.894Z,6.80
2017-11-18T21:58:43.837Z,6.80
2017-11-18T22:01:17.169Z,6.90
2017-11-18T22:03:46.600Z,6.90
2017-11-18T22:06:16.182Z,6.80
2017-11-18T22:08:48.699Z,6.80
2017-11-18T22:11:25.207Z,6.90
2017-11-18T22:13:54.683Z,7.00
2017-11-18T22:16:34.574Z,6.90
2017-11-18T22:19:14.620Z,7.00
2017-11-18T22:21:58.693Z,7.10
2017-11-18T22:24:30.643Z,7.20
2017-11-18T22:27:01.914Z,7.20
2017-11-18T22:29:41.074Z,7.10
2017-11-18T22:32:20.718Z,7.10
2017-11-18T22:34:50.895Z,7.10
2017-11-18T22:37:21.388Z,7.20
2017-11-18T22:39:58.378Z,7.20
2017-11-18T22:42:31.262Z,7.20
2017-11-18T22:45:04.093Z,7.20
2017-11-18T22:47:44.483Z,7.20
2017-11-18T22:50:14.071Z,7.20
2017-11-18T22:52:44.303Z,7.20
2017-11-18T22:55:16.170Z,7.20
2017-11-18T22:57:54.347Z,7.30
2017-11-18T23:00:45.713Z,7.30
2017-11-18T23:03:25.673Z,7.30
2017-11-18T23:05:58.153Z,7.20
2017-11-18T23:08:32.319Z,7.20
2017-11-18T23:11:04.867Z,7.30
2017-11-18T23:13:36.437Z,7.40
2017-11-18T23:16:07.900Z,7.30
2017-11-18T23:18:37.735Z,7.40
2017-11-18T23:21:06.890Z,7.40
2017-11-18T23:23:36.999Z,7.30
2017-11-18T23:26:07.425Z,7.20
2017-11-18T23:28:36.895Z,7.20
2017-11-18T23:31:06.774Z,7.20
2017-11-18T23:33:36.505Z,7.20
2017-11-18T23:36:05.930Z,7.20
2017-11-18T23:38:35.203Z,7.20
2017-11-18T23:41:11.223Z,7.20
2017-11-18T23:43:50.584Z,7.30
2017-11-18T23:46:22.138Z,7.30
2017-11-18T23:48:51.316Z,7.30
2017-11-18T23:51:31.573Z,7.20
2017-11-18T23:54:07.280Z,7.20
2017-11-18T23:56:37.934Z,7.10
2017-11-18T23:59:12.336Z,7.10
